CZ-0112 weather

Kralovice Airstrip
Czechia

Public forecast

Using degrees Celsius for public forecast. Weather courtesy of forecast.io.

Closest aviation weather report (METAR) to Kralovice Airstrip

Closest report is Plzeň-Líně Airport, 21.1 nm (39.0 km) SSW. Retrieved 2019/10/13 18:00 UTC (55 minutes ago):

LKLN 131800Z AUTO 23002KT 9999 FEW220 17/13 Q1016

Closest aviation forecast (TAF) to Kralovice Airstrip

Closest forecast is Karlovy Vary International Airport, 27.0 nm (50.0 km) WNW. Retrieved 2019/10/13 18:26 UTC (29 minutes ago):

TAF LKKV 131700Z 1318/1500 19004KT CAVOK BECMG 1320/1322 VRB02KT PROB30 TEMPO 1402/1406 4000 BR NSC BECMG 1410/1412 13006KT